createdAt,value
2019-03-30T00:00:13.761Z,44.76
2019-03-30T00:01:13.752Z,44.47
2019-03-30T00:02:13.733Z,44.28
2019-03-30T00:03:13.721Z,44.38
2019-03-30T00:04:13.704Z,46.66
2019-03-30T00:05:13.690Z,46.47
2019-03-30T00:06:13.674Z,46.09
2019-03-30T00:07:13.701Z,43.71
2019-03-30T00:08:13.651Z,44.19
2019-03-30T00:09:13.630Z,43.80
2019-03-30T00:10:13.616Z,42.76
2019-03-30T00:11:13.603Z,41.91
2019-03-30T00:12:13.586Z,42.10
2019-03-30T00:13:13.575Z,43.69
2019-03-30T00:14:13.562Z,43.71
2019-03-30T00:15:13.546Z,43.41
2019-03-30T00:16:13.527Z,43.05
2019-03-30T00:17:13.516Z,43.33
2019-03-30T00:18:13.503Z,43.62
2019-03-30T00:19:13.577Z,43.90
2019-03-30T00:20:13.471Z,44.09
2019-03-30T00:21:13.462Z,44.85
2019-03-30T00:22:13.442Z,43.41
2019-03-30T00:23:13.430Z,42.47
2019-03-30T00:24:13.410Z,42.38
2019-03-30T00:25:13.402Z,42.83
2019-03-30T00:26:13.382Z,42.67
2019-03-30T00:27:13.372Z,42.76
2019-03-30T00:28:13.356Z,43.62
2019-03-30T00:29:13.343Z,44.17
2019-03-30T00:30:13.325Z,44.93
2019-03-30T00:31:13.309Z,45.23
2019-03-30T00:32:13.304Z,46.28
2019-03-30T00:33:13.279Z,46.28
2019-03-30T00:34:13.269Z,44.85
2019-03-30T00:35:13.249Z,44.28
2019-03-30T00:36:13.239Z,44.26
2019-03-30T00:37:13.222Z,43.98
2019-03-30T00:38:13.218Z,44.26
2019-03-30T00:39:13.195Z,44.17
2019-03-30T00:40:13.187Z,44.26
2019-03-30T00:41:13.164Z,45.87
2019-03-30T00:42:13.152Z,46.92
2019-03-30T00:43:13.134Z,47.58
2019-03-30T00:44:13.119Z,47.49
2019-03-30T00:45:13.102Z,47.58
2019-03-30T00:46:13.089Z,46.25
2019-03-30T00:47:13.074Z,44.83
2019-03-30T00:48:13.060Z,43.50
2019-03-30T00:49:13.048Z,43.60
2019-03-30T00:50:13.030Z,44.35
2019-03-30T00:51:13.021Z,44.93
2019-03-30T00:52:13.006Z,44.64
2019-03-30T00:53:12.986Z,43.98
2019-03-30T00:54:12.969Z,43.21
2019-03-30T00:55:12.959Z,43.60
2019-03-30T00:56:12.943Z,43.60
2019-03-30T00:57:12.936Z,43.69
2019-03-30T00:58:12.910Z,44.17
2019-03-30T00:59:12.895Z,44.83
2019-03-30T01:00:12.887Z,45.02
2019-03-30T01:01:12.866Z,43.98
2019-03-30T01:02:12.856Z,44.17
2019-03-30T01:03:12.840Z,44.73
2019-03-30T01:04:12.825Z,45.02
2019-03-30T01:05:12.810Z,44.73
2019-03-30T01:06:12.794Z,44.17
2019-03-30T01:07:12.783Z,43.98
2019-03-30T01:08:12.765Z,43.60
2019-03-30T01:09:12.759Z,43.12
2019-03-30T01:10:12.737Z,42.65
2019-03-30T01:11:12.718Z,43.21
2019-03-30T01:12:12.702Z,44.17
2019-03-30T01:13:12.690Z,44.93
2019-03-30T01:14:12.679Z,45.31
2019-03-30T01:15:12.662Z,46.54
2019-03-30T01:16:12.645Z,46.16
2019-03-30T01:17:12.634Z,46.64
2019-03-30T01:18:12.618Z,46.83
2019-03-30T01:19:12.604Z,46.92
2019-03-30T01:20:12.583Z,46.25
2019-03-30T01:21:12.576Z,45.59
2019-03-30T01:22:12.558Z,44.07
2019-03-30T01:23:12.539Z,42.83
2019-03-30T01:24:12.527Z,41.79
2019-03-30T01:25:12.517Z,41.69
2019-03-30T01:26:12.503Z,41.96
2019-03-30T01:27:12.481Z,42.65
2019-03-30T01:28:12.479Z,42.74
2019-03-30T01:29:12.532Z,43.60
2019-03-30T01:30:22.476Z,43.98
2019-03-30T01:31:12.429Z,42.74
2019-03-30T01:32:12.410Z,41.39
2019-03-30T01:33:12.396Z,41.39
2019-03-30T01:34:12.374Z,40.16
2019-03-30T01:35:12.483Z,39.97
2019-03-30T01:36:12.353Z,41.39
2019-03-30T01:37:12.334Z,41.98
2019-03-30T01:38:12.321Z,41.30
2019-03-30T01:39:12.306Z,40.44
2019-03-30T01:40:12.292Z,40.56
2019-03-30T01:41:12.272Z,41.22
2019-03-30T01:42:12.257Z,41.86
2019-03-30T01:43:12.247Z,42.63
2019-03-30T01:44:12.231Z,43.12
2019-03-30T01:45:12.218Z,43.88
2019-03-30T01:46:12.245Z,44.34
2019-03-30T01:47:12.184Z,44.35
2019-03-30T01:48:12.167Z,44.14
2019-03-30T01:49:12.157Z,44.64
2019-03-30T01:50:17.578Z,44.17
2019-03-30T01:51:12.122Z,42.72
2019-03-30T01:52:12.112Z,42.24
2019-03-30T01:53:12.094Z,41.96
2019-03-30T01:54:12.081Z,42.05
2019-03-30T01:55:12.059Z,42.91
2019-03-30T01:56:12.047Z,43.10
2019-03-30T01:57:12.036Z,43.19
2019-03-30T01:58:12.020Z,42.72
2019-03-30T01:59:12.095Z,42.72
2019-03-30T02:00:11.990Z,42.82
2019-03-30T02:01:11.981Z,42.91
2019-03-30T02:02:11.954Z,43.10
2019-03-30T02:03:11.946Z,43.38
2019-03-30T02:04:11.928Z,43.10
2019-03-30T02:05:11.916Z,42.91
2019-03-30T02:06:11.898Z,42.53
2019-03-30T02:07:11.881Z,42.63
2019-03-30T02:08:11.875Z,42.63
2019-03-30T02:09:11.857Z,43.01
2019-03-30T02:10:11.839Z,43.19
2019-03-30T02:11:11.823Z,43.29
2019-03-30T02:12:11.804Z,43.67
2019-03-30T02:13:11.794Z,44.14
2019-03-30T02:14:11.775Z,44.81
2019-03-30T02:15:11.772Z,45.95
2019-03-30T02:16:11.744Z,46.14
2019-03-30T02:17:11.730Z,46.14
2019-03-30T02:18:11.714Z,46.23
2019-03-30T02:19:11.706Z,45.95
2019-03-30T02:20:11.686Z,45.38
2019-03-30T02:21:11.672Z,45.09
2019-03-30T02:22:11.655Z,45.85
2019-03-30T02:23:11.641Z,46.04
2019-03-30T02:24:11.629Z,46.33
2019-03-30T02:25:11.616Z,46.14
2019-03-30T02:26:11.596Z,45.00
2019-03-30T02:27:11.582Z,44.90
2019-03-30T02:28:11.572Z,44.43
2019-03-30T02:29:11.552Z,44.24
2019-03-30T02:30:11.539Z,44.62
2019-03-30T02:31:11.520Z,46.04
2019-03-30T02:32:11.511Z,44.62
2019-03-30T02:33:11.492Z,43.29
2019-03-30T02:34:11.475Z,43.29
2019-03-30T02:35:11.458Z,43.57
2019-03-30T02:36:11.448Z,44.34
2019-03-30T02:37:11.431Z,45.76
2019-03-30T02:38:11.413Z,46.23
2019-03-30T02:39:11.404Z,46.04
2019-03-30T02:40:11.385Z,45.47
2019-03-30T02:41:11.372Z,44.14
2019-03-30T02:42:11.354Z,44.05
2019-03-30T02:43:11.340Z,44.24
2019-03-30T02:44:11.323Z,44.14
2019-03-30T02:45:11.365Z,44.05
2019-03-30T02:46:11.295Z,44.34
2019-03-30T02:47:11.283Z,44.05
2019-03-30T02:48:11.268Z,44.43
2019-03-30T02:49:11.248Z,43.67
2019-03-30T02:50:11.235Z,42.63
2019-03-30T02:51:11.221Z,42.24
2019-03-30T02:52:11.201Z,42.15
2019-03-30T02:53:11.188Z,41.67
2019-03-30T02:54:11.174Z,42.24
2019-03-30T02:55:12.674Z,42.34
2019-03-30T02:56:11.142Z,43.01
2019-03-30T02:57:11.126Z,43.76
2019-03-30T02:58:11.108Z,43.76
2019-03-30T02:59:11.099Z,44.05
2019-03-30T03:00:11.105Z,44.14
2019-03-30T03:01:11.069Z,44.53
2019-03-30T03:02:11.056Z,45.00
2019-03-30T03:03:11.034Z,44.24
2019-03-30T03:04:11.019Z,44.24
2019-03-30T03:05:11.008Z,43.57
2019-03-30T03:06:11.005Z,43.48
2019-03-30T03:07:10.973Z,43.76
2019-03-30T03:08:10.960Z,43.57
2019-03-30T03:09:10.948Z,43.38
2019-03-30T03:10:10.930Z,43.19
2019-03-30T03:11:10.919Z,42.53
2019-03-30T03:12:10.901Z,42.24
2019-03-30T03:13:10.890Z,41.86
2019-03-30T03:14:10.874Z,42.34
2019-03-30T03:15:10.858Z,42.24
2019-03-30T03:16:10.841Z,41.67
2019-03-30T03:17:10.857Z,41.11
2019-03-30T03:18:10.807Z,41.39
2019-03-30T03:19:10.806Z,40.72
2019-03-30T03:20:10.780Z,41.11
2019-03-30T03:21:10.763Z,41.67
2019-03-30T03:22:10.746Z,41.86
2019-03-30T03:23:10.733Z,42.63
2019-03-30T03:24:10.715Z,42.24
2019-03-30T03:25:10.703Z,42.34
2019-03-30T03:26:10.683Z,42.72
2019-03-30T03:27:10.672Z,43.48
2019-03-30T03:28:10.657Z,44.05
2019-03-30T03:29:10.641Z,44.14
2019-03-30T03:30:10.622Z,44.81
2019-03-30T03:31:10.711Z,45.00
2019-03-30T03:32:10.594Z,45.95
2019-03-30T03:33:10.578Z,45.09
2019-03-30T03:34:10.566Z,44.43
2019-03-30T03:35:10.574Z,43.86
2019-03-30T03:36:10.534Z,43.95
2019-03-30T03:37:10.520Z,43.76
2019-03-30T03:38:10.515Z,42.24
2019-03-30T03:39:10.484Z,41.30
2019-03-30T03:40:10.468Z,39.97
2019-03-30T03:41:10.455Z,39.01
2019-03-30T03:42:10.448Z,39.49
2019-03-30T03:43:10.423Z,39.68
2019-03-30T03:44:10.412Z,40.44
2019-03-30T03:45:10.399Z,41.30
2019-03-30T03:46:10.381Z,41.20
2019-03-30T03:47:10.367Z,41.39
2019-03-30T03:48:10.350Z,41.67
2019-03-30T03:49:10.334Z,41.96
2019-03-30T03:50:10.319Z,41.86
2019-03-30T03:51:25.092Z,42.24
2019-03-30T03:52:10.290Z,42.24
2019-03-30T03:53:10.270Z,42.82
2019-03-30T03:54:10.255Z,43.27
2019-03-30T03:55:10.238Z,43.67
2019-03-30T03:56:10.229Z,43.36
2019-03-30T03:57:10.215Z,41.85
2019-03-30T03:58:10.194Z,41.46
2019-03-30T03:59:10.178Z,41.56
2019-03-30T04:00:10.165Z,41.58
2019-03-30T04:01:10.180Z,42.53
2019-03-30T04:02:10.133Z,43.08
2019-03-30T04:03:10.131Z,43.48
2019-03-30T04:04:10.103Z,43.48
2019-03-30T04:05:10.093Z,41.66
2019-03-30T04:06:10.069Z,40.80
2019-03-30T04:07:10.062Z,40.42
2019-03-30T04:08:10.041Z,40.52
2019-03-30T04:09:10.030Z,41.18
2019-03-30T04:10:10.015Z,41.18
2019-03-30T04:11:09.996Z,41.27
2019-03-30T04:12:09.985Z,41.46
2019-03-30T04:13:09.971Z,42.13
2019-03-30T04:14:09.948Z,42.89
2019-03-30T04:15:09.932Z,42.98
2019-03-30T04:16:09.920Z,42.89
2019-03-30T04:17:09.919Z,43.27
2019-03-30T04:18:09.887Z,43.27
2019-03-30T04:19:09.869Z,43.46
2019-03-30T04:20:09.852Z,43.74
2019-03-30T04:21:09.843Z,44.02
2019-03-30T04:22:09.826Z,43.36
2019-03-30T04:23:09.808Z,42.13
2019-03-30T04:24:09.793Z,41.46
2019-03-30T04:25:09.779Z,41.27
2019-03-30T04:26:09.765Z,41.27
2019-03-30T04:27:09.748Z,41.85
2019-03-30T04:28:09.727Z,42.32
2019-03-30T04:29:09.720Z,42.13
2019-03-30T04:30:09.704Z,40.70
2019-03-30T04:31:09.685Z,40.14
2019-03-30T04:32:09.684Z,41.18
2019-03-30T04:33:09.657Z,42.32
2019-03-30T04:34:09.639Z,41.94
2019-03-30T04:35:09.642Z,42.32
2019-03-30T04:36:09.601Z,42.03
2019-03-30T04:37:09.600Z,41.37
2019-03-30T04:38:13.929Z,39.85
2019-03-30T04:39:09.563Z,39.47
2019-03-30T04:40:09.546Z,39.66
2019-03-30T04:41:09.531Z,39.57
2019-03-30T04:42:09.516Z,39.47
2019-03-30T04:43:09.496Z,39.76
2019-03-30T04:44:09.513Z,40.04
2019-03-30T04:45:09.470Z,40.33
2019-03-30T04:46:09.451Z,40.89
2019-03-30T04:47:09.433Z,41.18
2019-03-30T04:48:09.419Z,39.85
2019-03-30T04:49:09.403Z,38.33
2019-03-30T04:50:09.385Z,38.90
2019-03-30T04:51:09.379Z,38.81
2019-03-30T04:52:09.360Z,38.05
2019-03-30T04:53:09.341Z,37.76
2019-03-30T04:54:09.323Z,37.86
2019-03-30T04:55:09.311Z,37.67
2019-03-30T04:56:09.296Z,37.67
2019-03-30T04:57:09.276Z,37.57
2019-03-30T04:58:09.653Z,36.91
2019-03-30T04:59:09.247Z,36.63
2019-03-30T05:00:09.230Z,36.44
2019-03-30T05:01:09.218Z,36.55
2019-03-30T05:02:09.200Z,36.17
2019-03-30T05:03:09.183Z,35.69
2019-03-30T05:04:09.171Z,35.60
2019-03-30T05:05:09.155Z,35.03
2019-03-30T05:06:09.136Z,35.98
2019-03-30T05:07:09.120Z,35.41
2019-03-30T05:08:09.108Z,35.79
2019-03-30T05:09:09.090Z,36.46
2019-03-30T05:10:09.079Z,36.65
2019-03-30T05:11:09.058Z,36.17
2019-03-30T05:12:09.045Z,36.74
2019-03-30T05:13:09.029Z,37.30
2019-03-30T05:14:09.093Z,37.69
2019-03-30T05:15:09.003Z,37.69
2019-03-30T05:16:08.981Z,38.92
2019-03-30T05:17:08.967Z,39.68
2019-03-30T05:18:08.948Z,38.43
2019-03-30T05:19:08.932Z,38.62
2019-03-30T05:20:08.915Z,38.24
2019-03-30T05:21:08.904Z,37.76
2019-03-30T05:22:13.543Z,36.72
2019-03-30T05:23:08.872Z,37.01
2019-03-30T05:24:08.856Z,37.10
2019-03-30T05:25:08.838Z,37.38
2019-03-30T05:26:08.823Z,37.57
2019-03-30T05:27:08.808Z,37.29
2019-03-30T05:28:08.793Z,37.10
2019-03-30T05:29:08.783Z,37.10
2019-03-30T05:30:08.763Z,36.72
2019-03-30T05:31:08.748Z,35.96
2019-03-30T05:32:08.733Z,35.01
2019-03-30T05:33:08.718Z,35.30
2019-03-30T05:34:08.697Z,35.58
2019-03-30T05:35:08.684Z,36.24
2019-03-30T05:36:08.672Z,36.34
2019-03-30T05:37:08.660Z,36.24
2019-03-30T05:38:08.639Z,36.05
2019-03-30T05:39:08.622Z,35.50
2019-03-30T05:40:08.611Z,35.39
2019-03-30T05:41:08.591Z,34.44
2019-03-30T05:42:08.574Z,34.46
2019-03-30T05:43:08.554Z,34.46
2019-03-30T05:44:08.540Z,34.25
2019-03-30T05:45:08.526Z,34.25
2019-03-30T05:46:08.512Z,34.08
2019-03-30T05:47:08.496Z,35.22
2019-03-30T05:48:08.562Z,34.55
2019-03-30T05:49:08.464Z,34.17
2019-03-30T05:50:08.447Z,34.27
2019-03-30T05:51:08.431Z,34.17
2019-03-30T05:52:08.415Z,34.27
2019-03-30T05:53:08.403Z,33.70
2019-03-30T05:54:08.384Z,33.78
2019-03-30T05:55:08.369Z,33.30
2019-03-30T05:56:08.353Z,32.26
2019-03-30T05:57:08.341Z,32.35
2019-03-30T05:58:08.320Z,32.64
2019-03-30T05:59:08.306Z,32.92
2019-03-30T06:00:08.287Z,32.73
2019-03-30T06:01:08.280Z,32.45
2019-03-30T06:02:08.260Z,32.83
2019-03-30T06:03:08.244Z,32.73
2019-03-30T06:04:08.230Z,32.26
2019-03-30T06:05:08.214Z,32.45
2019-03-30T06:06:08.199Z,32.54
2019-03-30T06:07:08.180Z,32.83
2019-03-30T06:08:08.165Z,31.88
2019-03-30T06:09:08.148Z,32.17
2019-03-30T06:10:08.130Z,31.99
2019-03-30T06:11:08.118Z,31.99
2019-03-30T06:12:08.100Z,31.80
2019-03-30T06:13:08.084Z,31.90
2019-03-30T06:14:08.071Z,32.18
2019-03-30T06:15:08.062Z,32.28
2019-03-30T06:16:08.039Z,32.28
2019-03-30T06:17:08.026Z,31.80
2019-03-30T06:18:11.161Z,31.90
2019-03-30T06:19:07.992Z,32.28
2019-03-30T06:20:07.981Z,32.94
2019-03-30T06:21:07.961Z,32.84
2019-03-30T06:22:07.942Z,32.75
2019-03-30T06:23:07.926Z,32.56
2019-03-30T06:24:07.912Z,32.28
2019-03-30T06:25:07.903Z,32.37
2019-03-30T06:26:07.884Z,32.46
2019-03-30T06:27:07.872Z,32.28
2019-03-30T06:28:07.852Z,32.56
2019-03-30T06:29:07.837Z,32.94
2019-03-30T06:30:07.818Z,31.90
2019-03-30T06:31:07.805Z,31.42
2019-03-30T06:32:07.792Z,32.18
2019-03-30T06:33:07.773Z,32.84
2019-03-30T06:34:07.763Z,34.46
2019-03-30T06:35:07.745Z,35.31
2019-03-30T06:36:07.725Z,35.60
2019-03-30T06:37:07.710Z,36.26
2019-03-30T06:38:07.693Z,37.02
2019-03-30T06:39:07.675Z,37.50
2019-03-30T06:40:07.667Z,38.07
2019-03-30T06:41:07.651Z,38.26
2019-03-30T06:42:07.631Z,38.35
2019-03-30T06:43:08.130Z,38.35
2019-03-30T06:44:07.605Z,37.97
2019-03-30T06:45:07.586Z,37.50
2019-03-30T06:46:07.565Z,37.88
2019-03-30T06:47:07.552Z,38.92
2019-03-30T06:48:07.544Z,38.92
2019-03-30T06:49:07.526Z,39.11
2019-03-30T06:50:07.512Z,39.30
2019-03-30T06:51:07.495Z,39.04
2019-03-30T06:52:07.474Z,38.94
2019-03-30T06:53:07.464Z,38.65
2019-03-30T06:54:07.452Z,38.28
2019-03-30T06:55:07.431Z,37.61
2019-03-30T06:56:07.443Z,37.99
2019-03-30T06:57:07.400Z,37.73
2019-03-30T06:58:07.384Z,37.35
2019-03-30T06:59:07.374Z,37.15
2019-03-30T07:00:07.356Z,36.68
2019-03-30T07:01:07.332Z,36.41
2019-03-30T07:02:07.321Z,36.32
2019-03-30T07:03:07.315Z,36.41
2019-03-30T07:04:07.293Z,36.32
2019-03-30T07:05:07.283Z,36.32
2019-03-30T07:06:07.264Z,36.60
2019-03-30T07:07:07.250Z,37.08
2019-03-30T07:08:07.232Z,37.67
2019-03-30T07:09:07.223Z,37.48
2019-03-30T07:10:07.206Z,36.81
2019-03-30T07:11:20.664Z,36.53
2019-03-30T07:12:07.179Z,35.77
2019-03-30T07:13:07.174Z,35.48
2019-03-30T07:14:07.148Z,35.38
2019-03-30T07:15:07.138Z,35.78
2019-03-30T07:16:07.118Z,35.21
2019-03-30T07:17:07.101Z,34.26
2019-03-30T07:18:07.089Z,33.78
2019-03-30T07:19:07.075Z,32.93
2019-03-30T07:20:07.060Z,32.64
2019-03-30T07:21:07.048Z,32.55
2019-03-30T07:22:07.030Z,31.90
2019-03-30T07:23:12.180Z,31.98
2019-03-30T07:24:07.002Z,32.28
2019-03-30T07:25:06.986Z,33.14
2019-03-30T07:26:06.977Z,33.23
2019-03-30T07:27:06.960Z,33.70
2019-03-30T07:28:06.950Z,32.87
2019-03-30T07:29:06.933Z,32.96
2019-03-30T07:30:06.972Z,33.15
2019-03-30T07:31:06.901Z,33.34
2019-03-30T07:32:06.892Z,33.15
2019-03-30T07:33:06.878Z,33.72
2019-03-30T07:34:06.860Z,34.11
2019-03-30T07:35:06.850Z,34.12
2019-03-30T07:36:06.838Z,34.41
2019-03-30T07:37:06.824Z,34.31
2019-03-30T07:38:06.807Z,34.03
2019-03-30T07:39:06.794Z,33.84
2019-03-30T07:40:06.776Z,33.17
2019-03-30T07:41:06.768Z,32.88
2019-03-30T07:42:06.754Z,32.52
2019-03-30T07:43:06.741Z,32.04
2019-03-30T07:44:06.732Z,31.56
2019-03-30T07:45:06.715Z,31.56
2019-03-30T07:46:06.703Z,31.56
2019-03-30T07:47:06.686Z,31.18
2019-03-30T07:48:06.674Z,31.28
2019-03-30T07:49:06.660Z,31.39
2019-03-30T07:50:06.643Z,31.48
2019-03-30T07:51:06.633Z,31.29
2019-03-30T07:52:06.625Z,31.20
2019-03-30T07:53:06.609Z,31.20
2019-03-30T07:54:06.591Z,31.31
2019-03-30T07:55:06.578Z,31.69
2019-03-30T07:56:08.668Z,31.98
2019-03-30T07:57:16.530Z,31.31
2019-03-30T07:58:06.584Z,31.12
2019-03-30T07:59:06.528Z,30.83
2019-03-30T08:00:06.513Z,30.16
2019-03-30T08:01:06.508Z,29.11
2019-03-30T08:02:06.494Z,29.51
2019-03-30T08:03:06.478Z,29.41
2019-03-30T08:04:06.468Z,29.70
2019-03-30T08:05:06.454Z,29.51
2019-03-30T08:06:06.440Z,28.65
2019-03-30T08:07:06.427Z,28.19
2019-03-30T08:08:06.419Z,28.57
2019-03-30T08:09:06.407Z,28.47
2019-03-30T08:10:06.406Z,28.38
2019-03-30T08:11:06.397Z,28.38
2019-03-30T08:12:06.366Z,28.86
2019-03-30T08:13:06.353Z,27.42
2019-03-30T08:14:06.341Z,27.05
2019-03-30T08:15:06.329Z,26.48
2019-03-30T08:16:06.320Z,25.62
2019-03-30T08:17:06.306Z,25.43
2019-03-30T08:18:06.298Z,25.62
2019-03-30T08:19:06.285Z,25.81
2019-03-30T08:20:06.270Z,25.71
2019-03-30T08:21:06.262Z,24.95
2019-03-30T08:22:06.243Z,24.29
2019-03-30T08:23:06.238Z,24.29
2019-03-30T08:24:06.224Z,25.06
2019-03-30T08:25:06.215Z,25.06
2019-03-30T08:26:06.202Z,25.54
2019-03-30T08:27:06.187Z,25.82
2019-03-30T08:28:06.177Z,25.06
2019-03-30T08:29:06.165Z,24.30
2019-03-30T08:30:06.172Z,24.11
2019-03-30T08:31:06.144Z,23.63
2019-03-30T08:32:06.131Z,23.73
2019-03-30T08:33:06.118Z,24.02
2019-03-30T08:34:06.109Z,24.59
2019-03-30T08:35:06.099Z,24.40
2019-03-30T08:36:06.162Z,23.74
2019-03-30T08:37:06.074Z,23.84
2019-03-30T08:38:06.065Z,23.74
2019-03-30T08:39:06.056Z,23.17
2019-03-30T08:40:06.039Z,23.93
2019-03-30T08:41:06.028Z,23.93
2019-03-30T08:42:06.020Z,24.32
2019-03-30T08:43:06.007Z,25.48
2019-03-30T08:44:05.995Z,25.96
2019-03-30T08:45:05.986Z,25.67
2019-03-30T08:46:05.973Z,25.00
2019-03-30T08:47:05.966Z,24.33
2019-03-30T08:48:05.960Z,25.00
2019-03-30T08:49:05.944Z,24.52
2019-03-30T08:50:05.932Z,24.14
2019-03-30T08:51:05.921Z,22.14
2019-03-30T08:52:05.916Z,23.28
2019-03-30T08:53:05.904Z,24.05
2019-03-30T08:54:05.894Z,24.34
2019-03-30T08:55:05.878Z,24.91
2019-03-30T08:56:05.875Z,25.01
2019-03-30T08:57:05.863Z,24.82
2019-03-30T08:58:05.846Z,24.55
2019-03-30T08:59:05.839Z,23.21
2019-03-30T09:00:05.826Z,22.53
2019-03-30T09:01:05.819Z,21.77
2019-03-30T09:02:05.804Z,21.95
2019-03-30T09:03:05.796Z,22.05
2019-03-30T09:04:05.786Z,21.77
2019-03-30T09:05:05.775Z,20.04
2019-03-30T09:06:05.765Z,19.75
2019-03-30T09:07:05.753Z,19.37
2019-03-30T09:08:05.747Z,19.27
2019-03-30T09:09:05.738Z,19.76
2019-03-30T09:10:05.728Z,17.36
2019-03-30T09:11:05.719Z,15.44
2019-03-30T09:12:05.711Z,15.35
2019-03-30T09:13:05.702Z,15.72
2019-03-30T09:14:05.687Z,15.82
2019-03-30T09:15:05.746Z,15.34
2019-03-30T09:16:05.671Z,15.53
2019-03-30T09:17:05.658Z,15.43
2019-03-30T09:18:05.646Z,15.52
2019-03-30T09:19:05.639Z,15.82
2019-03-30T09:20:05.632Z,16.01
2019-03-30T09:21:05.616Z,15.63
2019-03-30T09:22:05.607Z,15.63
2019-03-30T09:23:05.603Z,15.53
2019-03-30T09:24:09.862Z,15.72
2019-03-30T09:25:05.579Z,15.15
2019-03-30T09:26:05.564Z,15.53
2019-03-30T09:27:05.562Z,16.58
2019-03-30T09:28:05.557Z,15.92
2019-03-30T09:29:05.541Z,15.63
2019-03-30T09:30:05.529Z,15.23
2019-03-30T09:31:05.522Z,14.66
2019-03-30T09:32:14.443Z,15.33
2019-03-30T09:33:05.506Z,15.52
2019-03-30T09:34:05.491Z,15.04
2019-03-30T09:35:05.486Z,15.42
2019-03-30T09:36:05.477Z,15.42
2019-03-30T09:37:05.469Z,16.09
2019-03-30T09:38:05.457Z,15.23
2019-03-30T09:39:05.446Z,15.13
2019-03-30T09:40:05.441Z,14.65
2019-03-30T09:41:05.427Z,14.28
2019-03-30T09:42:05.420Z,13.80
2019-03-30T09:43:05.408Z,14.47
2019-03-30T09:44:05.393Z,16.67
2019-03-30T09:45:05.387Z,16.97
2019-03-30T09:46:05.373Z,16.20
2019-03-30T09:47:05.370Z,15.34
2019-03-30T09:48:05.356Z,14.67
2019-03-30T09:49:05.350Z,14.20
2019-03-30T09:50:05.336Z,15.25
2019-03-30T09:51:05.329Z,14.77
2019-03-30T09:52:05.318Z,13.92
2019-03-30T09:53:05.325Z,13.63
2019-03-30T09:54:05.297Z,14.59
2019-03-30T09:55:05.296Z,14.79
2019-03-30T09:56:05.284Z,14.59
2019-03-30T09:57:05.269Z,14.31
2019-03-30T09:58:05.263Z,13.73
2019-03-30T09:59:05.252Z,12.68
2019-03-30T10:00:05.250Z,12.10
2019-03-30T10:01:05.236Z,12.68
2019-03-30T10:02:05.224Z,11.82
2019-03-30T10:03:06.274Z,11.91
2019-03-30T10:04:05.208Z,12.68
2019-03-30T10:05:05.200Z,13.54
2019-03-30T10:06:05.191Z,14.70
2019-03-30T10:07:05.179Z,15.28
2019-03-30T10:08:05.172Z,14.61
2019-03-30T10:09:05.167Z,13.07
2019-03-30T10:10:05.154Z,12.21
2019-03-30T10:11:05.150Z,12.88
2019-03-30T10:12:05.140Z,14.13
2019-03-30T10:13:05.131Z,13.93
2019-03-30T10:14:05.118Z,13.75
2019-03-30T10:15:05.110Z,14.71
2019-03-30T10:16:05.107Z,14.03
2019-03-30T10:17:05.101Z,13.93
2019-03-30T10:18:05.090Z,13.93
2019-03-30T10:19:05.075Z,14.51
2019-03-30T10:20:05.370Z,14.23
2019-03-30T10:21:05.062Z,13.85
2019-03-30T10:22:05.054Z,13.07
2019-03-30T10:23:05.047Z,13.93
2019-03-30T10:24:05.037Z,13.75
2019-03-30T10:25:05.030Z,13.93
2019-03-30T10:26:05.016Z,13.07
2019-03-30T10:27:05.013Z,13.17
2019-03-30T10:28:05.006Z,13.46
2019-03-30T10:29:04.990Z,13.56
2019-03-30T10:30:04.987Z,13.28
2019-03-30T10:31:04.979Z,12.60
2019-03-30T10:32:04.983Z,12.60
2019-03-30T10:33:04.962Z,12.32
2019-03-30T10:34:04.950Z,12.99
2019-03-30T10:35:04.944Z,13.10
2019-03-30T10:36:04.937Z,13.38
2019-03-30T10:37:04.931Z,13.28
2019-03-30T10:38:04.920Z,11.75
2019-03-30T10:39:04.922Z,10.88
2019-03-30T10:40:04.900Z,10.98
2019-03-30T10:41:04.898Z,10.30
2019-03-30T10:42:04.887Z,11.07
2019-03-30T10:43:04.882Z,11.27
2019-03-30T10:44:04.874Z,11.65
2019-03-30T10:45:04.866Z,11.75
2019-03-30T10:46:04.859Z,11.27
2019-03-30T10:47:04.850Z,11.36
2019-03-30T10:48:04.842Z,10.88
2019-03-30T10:49:04.833Z,10.59
2019-03-30T10:50:04.825Z,10.59
2019-03-30T10:51:04.822Z,10.59
2019-03-30T10:52:04.815Z,10.69
2019-03-30T10:53:04.801Z,10.30
2019-03-30T10:54:04.794Z,10.89
2019-03-30T10:55:04.788Z,12.04
2019-03-30T10:56:04.782Z,13.49
2019-03-30T10:57:04.770Z,13.87
2019-03-30T10:58:04.763Z,12.62
2019-03-30T10:59:04.757Z,11.66
2019-03-30T11:00:04.748Z,10.89
2019-03-30T11:01:04.745Z,10.50
2019-03-30T11:02:04.737Z,10.22
2019-03-30T11:03:04.727Z,10.89
2019-03-30T11:04:04.721Z,11.08
2019-03-30T11:05:04.716Z,10.60
2019-03-30T11:06:04.709Z,11.27
2019-03-30T11:07:04.700Z,11.66
2019-03-30T11:08:04.695Z,11.56
2019-03-30T11:09:04.683Z,10.50
2019-03-30T11:10:04.678Z,11.07
2019-03-30T11:11:04.675Z,11.75
2019-03-30T11:12:04.664Z,10.50
2019-03-30T11:13:04.666Z,11.93
2019-03-30T11:14:04.649Z,11.74
2019-03-30T11:15:04.639Z,12.03
2019-03-30T11:16:04.635Z,11.93
2019-03-30T11:17:04.629Z,11.93
2019-03-30T11:18:04.622Z,12.80
2019-03-30T11:19:04.618Z,12.03
2019-03-30T11:20:04.665Z,11.93
2019-03-30T11:21:04.600Z,11.85
2019-03-30T11:22:04.594Z,11.94
2019-03-30T11:23:04.583Z,11.75
2019-03-30T11:24:06.745Z,11.94
2019-03-30T11:25:07.857Z,11.94
2019-03-30T11:26:04.563Z,11.76
2019-03-30T11:27:04.555Z,11.66
2019-03-30T11:28:04.550Z,11.57
2019-03-30T11:29:04.544Z,11.29
2019-03-30T11:30:04.537Z,10.99
2019-03-30T11:31:05.613Z,11.57
2019-03-30T11:32:04.521Z,10.61
2019-03-30T11:33:04.512Z,10.32
2019-03-30T11:34:05.471Z,10.32
2019-03-30T11:35:04.500Z,10.81
2019-03-30T11:36:04.503Z,11.00
2019-03-30T11:37:04.487Z,11.58
2019-03-30T11:38:04.482Z,11.20
2019-03-30T11:39:04.474Z,12.07
2019-03-30T11:40:04.471Z,12.07
2019-03-30T11:41:04.462Z,12.07
2019-03-30T11:42:04.453Z,10.72
2019-03-30T11:43:04.449Z,10.24
2019-03-30T11:44:04.445Z,9.27
2019-03-30T11:45:04.434Z,9.66
2019-03-30T11:46:04.431Z,9.47
2019-03-30T11:47:04.428Z,9.76
2019-03-30T11:48:04.414Z,9.95
2019-03-30T11:49:04.409Z,12.08
2019-03-30T11:50:04.404Z,10.72
2019-03-30T11:51:04.406Z,10.72
2019-03-30T11:52:04.390Z,10.72
2019-03-30T11:53:04.379Z,11.30
2019-03-30T11:54:05.404Z,10.91
2019-03-30T11:55:04.370Z,10.33
2019-03-30T11:56:04.369Z,9.85
2019-03-30T11:57:04.359Z,9.75
2019-03-30T11:58:04.349Z,9.66
2019-03-30T11:59:04.343Z,9.66
2019-03-30T12:00:04.338Z,10.14
2019-03-30T12:01:04.334Z,10.53
2019-03-30T12:02:04.326Z,10.63
2019-03-30T12:03:04.322Z,10.63
2019-03-30T12:04:04.315Z,10.53
2019-03-30T12:05:04.306Z,10.72
2019-03-30T12:06:04.303Z,10.91
2019-03-30T12:07:04.296Z,10.72
2019-03-30T12:08:04.292Z,11.01
2019-03-30T12:09:04.341Z,11.10
2019-03-30T12:10:04.278Z,10.91
2019-03-30T12:11:04.272Z,10.82
2019-03-30T12:12:04.266Z,11.98
2019-03-30T12:13:04.259Z,10.72
2019-03-30T12:14:04.259Z,11.29
2019-03-30T12:15:04.252Z,11.78
2019-03-30T12:16:04.241Z,11.97
2019-03-30T12:17:04.239Z,10.90
2019-03-30T12:18:04.237Z,11.77
2019-03-30T12:19:04.224Z,11.77
2019-03-30T12:20:04.217Z,11.96
2019-03-30T12:21:04.210Z,12.07
2019-03-30T12:22:04.273Z,11.68
2019-03-30T12:23:04.201Z,11.20
2019-03-30T12:24:04.194Z,11.49
2019-03-30T12:25:04.193Z,11.96
2019-03-30T12:26:04.186Z,12.35
2019-03-30T12:27:04.173Z,12.64
2019-03-30T12:28:04.174Z,11.78
2019-03-30T12:29:04.180Z,12.07
2019-03-30T12:30:04.165Z,12.16
2019-03-30T12:31:04.153Z,11.68
2019-03-30T12:32:04.151Z,11.97
2019-03-30T12:33:04.145Z,11.68
2019-03-30T12:34:04.135Z,12.07
2019-03-30T12:35:04.194Z,12.06
2019-03-30T12:36:04.121Z,12.06
2019-03-30T12:37:04.122Z,11.87
2019-03-30T12:38:04.118Z,11.97
2019-03-30T12:39:04.108Z,11.87
2019-03-30T12:40:04.100Z,12.07
2019-03-30T12:41:04.110Z,12.45
2019-03-30T12:42:04.088Z,12.16
2019-03-30T12:43:04.083Z,12.55
2019-03-30T12:44:04.077Z,13.23
2019-03-30T12:45:04.078Z,13.33
2019-03-30T12:46:04.065Z,12.76
2019-03-30T12:47:04.057Z,12.46
2019-03-30T12:48:04.051Z,12.08
2019-03-30T12:49:04.047Z,12.66
2019-03-30T12:50:04.049Z,11.69
2019-03-30T12:51:04.062Z,11.88
2019-03-30T12:52:04.032Z,11.69